sensor_id;sensor_type;location;lat;lon;timestamp;pressure;altitude;pressure_sealevel;temperature;humidity
78343;BME280;67618;52.444;21.192;2023-02-28T00:03:56;101993.81;;;-2.08;67.26
78343;BME280;67618;52.444;21.192;2023-02-28T00:13:58;101990.20;;;-2.25;67.91
78343;BME280;67618;52.444;21.192;2023-02-28T00:23:59;101999.33;;;-2.33;68.65
78343;BME280;67618;52.444;21.192;2023-02-28T00:34:01;101997.69;;;-2.42;68.75
78343;BME280;67618;52.444;21.192;2023-02-28T00:44:02;101999.02;;;-2.42;69.07
78343;BME280;67618;52.444;21.192;2023-02-28T00:54:04;102005.25;;;-2.41;68.83
78343;BME280;67618;52.444;21.192;2023-02-28T01:04:05;102009.44;;;-2.47;69.34
78343;BME280;67618;52.444;21.192;2023-02-28T01:14:07;102013.20;;;-2.54;69.40
78343;BME280;67618;52.444;21.192;2023-02-28T01:24:09;102015.25;;;-2.54;69.61
78343;BME280;67618;52.444;21.192;2023-02-28T01:34:11;102014.34;;;-2.48;68.92
78343;BME280;67618;52.444;21.192;2023-02-28T01:54:54;102015.11;;;-2.63;68.47
78343;BME280;67618;52.444;21.192;2023-02-28T02:05:04;102014.45;;;-2.78;68.34
78343;BME280;67618;52.444;21.192;2023-02-28T02:15:30;102014.27;;;-2.87;68.77
78343;BME280;67618;52.444;21.192;2023-02-28T02:25:46;102016.20;;;-2.82;69.22
78343;BME280;67618;52.444;21.192;2023-02-28T02:46:07;102025.77;;;-2.93;69.42
78343;BME280;67618;52.444;21.192;2023-02-28T02:56:11;102027.52;;;-3.01;69.08
78343;BME280;67618;52.444;21.192;2023-02-28T03:06:14;102025.96;;;-3.08;68.81
78343;BME280;67618;52.444;21.192;2023-02-28T03:16:35;102026.48;;;-3.08;68.97
78343;BME280;67618;52.444;21.192;2023-02-28T03:26:44;102026.09;;;-3.09;69.47
78343;BME280;67618;52.444;21.192;2023-02-28T03:36:57;102026.20;;;-3.10;70.06
78343;BME280;67618;52.444;21.192;2023-02-28T03:47:09;102028.08;;;-3.03;71.31
78343;BME280;67618;52.444;21.192;2023-02-28T03:57:20;102032.52;;;-2.94;72.00
78343;BME280;67618;52.444;21.192;2023-02-28T04:07:24;102038.27;;;-3.01;72.76
78343;BME280;67618;52.444;21.192;2023-02-28T04:17:25;102034.12;;;-2.91;73.29
78343;BME280;67618;52.444;21.192;2023-02-28T04:27:26;102032.75;;;-2.64;72.98
78343;BME280;67618;52.444;21.192;2023-02-28T04:37:28;102035.88;;;-2.39;73.00
78343;BME280;67618;52.444;21.192;2023-02-28T04:47:29;102041.86;;;-2.37;73.01
78343;BME280;67618;52.444;21.192;2023-02-28T04:57:31;102045.72;;;-2.42;72.76
78343;BME280;67618;52.444;21.192;2023-02-28T05:07:32;102052.66;;;-2.25;73.08
78343;BME280;67618;52.444;21.192;2023-02-28T05:17:33;102065.61;;;-2.02;72.84
78343;BME280;67618;52.444;21.192;2023-02-28T05:27:35;102078.33;;;-2.01;72.86
78343;BME280;67618;52.444;21.192;2023-02-28T05:37:37;102084.19;;;-1.96;72.80
78343;BME280;67618;52.444;21.192;2023-02-28T05:47:39;102098.00;;;-1.85;73.43
78343;BME280;67618;52.444;21.192;2023-02-28T05:57:41;102106.54;;;-1.73;73.32
78343;BME280;67618;52.444;21.192;2023-02-28T06:07:43;102108.83;;;-1.61;73.07
78343;BME280;67618;52.444;21.192;2023-02-28T06:17:44;102119.51;;;-1.41;72.71
78343;BME280;67618;52.444;21.192;2023-02-28T06:27:46;102119.09;;;-1.28;73.20
78343;BME280;67618;52.444;21.192;2023-02-28T06:37:47;102115.81;;;-1.30;73.40
78343;BME280;67618;52.444;21.192;2023-02-28T06:47:48;102112.39;;;-1.11;73.23
78343;BME280;67618;52.444;21.192;2023-02-28T06:57:50;102102.68;;;-1.00;72.58
78343;BME280;67618;52.444;21.192;2023-02-28T07:07:51;102085.25;;;-0.85;72.51
78343;BME280;67618;52.444;21.192;2023-02-28T07:17:53;102077.21;;;-0.65;72.34
78343;BME280;67618;52.444;21.192;2023-02-28T07:27:55;102072.05;;;-0.53;71.88
78343;BME280;67618;52.444;21.192;2023-02-28T07:37:57;102072.95;;;-0.37;70.55
78343;BME280;67618;52.444;21.192;2023-02-28T07:47:59;102071.05;;;-0.16;68.24
78343;BME280;67618;52.444;21.192;2023-02-28T07:58:01;102071.11;;;-0.10;65.26
78343;BME280;67618;52.444;21.192;2023-02-28T08:08:02;102076.63;;;-0.05;65.38
78343;BME280;67618;52.444;21.192;2023-02-28T08:18:04;102082.67;;;0.07;64.95
78343;BME280;67618;52.444;21.192;2023-02-28T08:28:05;102086.31;;;0.18;63.21
78343;BME280;67618;52.444;21.192;2023-02-28T08:38:07;102084.98;;;0.26;62.90
78343;BME280;67618;52.444;21.192;2023-02-28T08:48:08;102091.95;;;0.44;62.81
78343;BME280;67618;52.444;21.192;2023-02-28T08:58:10;102101.50;;;0.61;62.91
78343;BME280;67618;52.444;21.192;2023-02-28T09:08:11;102107.54;;;0.81;62.66
78343;BME280;67618;52.444;21.192;2023-02-28T09:18:12;102103.52;;;1.05;61.12
78343;BME280;67618;52.444;21.192;2023-02-28T09:28:15;102095.23;;;1.12;60.44
78343;BME280;67618;52.444;21.192;2023-02-28T09:38:17;102091.48;;;1.10;59.74
78343;BME280;67618;52.444;21.192;2023-02-28T09:48:23;102091.31;;;1.19;60.29
78343;BME280;67618;52.444;21.192;2023-02-28T09:58:33;102092.63;;;1.26;59.78
78343;BME280;67618;52.444;21.192;2023-02-28T10:08:53;102103.13;;;1.32;59.83
78343;BME280;67618;52.444;21.192;2023-02-28T10:29:03;102104.05;;;1.41;58.91
78343;BME280;67618;52.444;21.192;2023-02-28T10:39:40;102087.88;;;1.38;58.19
78343;BME280;67618;52.444;21.192;2023-02-28T10:49:50;102063.10;;;1.47;59.58
78343;BME280;67618;52.444;21.192;2023-02-28T10:59:53;102053.52;;;1.71;58.70
78343;BME280;67618;52.444;21.192;2023-02-28T11:10:17;102046.25;;;1.85;59.09
78343;BME280;67618;52.444;21.192;2023-02-28T11:20:23;102041.73;;;2.05;58.24
78343;BME280;67618;52.444;21.192;2023-02-28T11:30:30;102028.45;;;2.18;58.18
78343;BME280;67618;52.444;21.192;2023-02-28T11:40:56;102019.98;;;2.32;57.43
78343;BME280;67618;52.444;21.192;2023-02-28T12:11:45;101994.82;;;2.58;56.21
78343;BME280;67618;52.444;21.192;2023-02-28T12:32:32;101979.17;;;2.61;54.91
78343;BME280;67618;52.444;21.192;2023-02-28T12:42:40;101973.89;;;2.66;53.98
78343;BME280;67618;52.444;21.192;2023-02-28T12:52:54;101964.02;;;2.71;53.65
78343;BME280;67618;52.444;21.192;2023-02-28T13:13:29;101942.72;;;2.96;52.53
78343;BME280;67618;52.444;21.192;2023-02-28T14:04:50;101881.92;;;3.43;49.90
78343;BME280;67618;52.444;21.192;2023-02-28T14:14:56;101871.77;;;3.54;49.69
78343;BME280;67618;52.444;21.192;2023-02-28T14:25:30;101867.11;;;3.61;49.29
78343;BME280;67618;52.444;21.192;2023-02-28T14:36:04;101856.86;;;3.70;50.10
78343;BME280;67618;52.444;21.192;2023-02-28T14:46:07;101843.88;;;3.73;49.76
78343;BME280;67618;52.444;21.192;2023-02-28T14:56:23;101841.59;;;3.73;50.23
78343;BME280;67618;52.444;21.192;2023-02-28T15:06:25;101849.61;;;3.89;49.66
78343;BME280;67618;52.444;21.192;2023-02-28T15:16:39;101846.79;;;4.14;49.45
78343;BME280;67618;52.444;21.192;2023-02-28T15:26:53;101843.44;;;5.16;48.15
78343;BME280;67618;52.444;21.192;2023-02-28T15:36:56;101846.42;;;5.09;47.54
78343;BME280;67618;52.444;21.192;2023-02-28T15:47:21;101845.92;;;4.49;49.05
78343;BME280;67618;52.444;21.192;2023-02-28T15:57:26;101842.67;;;3.99;50.47
78343;BME280;67618;52.444;21.192;2023-02-28T16:07:29;101837.79;;;3.65;51.57
78343;BME280;67618;52.444;21.192;2023-02-28T16:17:37;101837.77;;;3.29;52.69
78343;BME280;67618;52.444;21.192;2023-02-28T16:27:40;101839.50;;;2.87;53.89
78343;BME280;67618;52.444;21.192;2023-02-28T16:37:41;101858.58;;;2.56;55.05
78343;BME280;67618;52.444;21.192;2023-02-28T16:47:45;101867.09;;;2.22;55.49
78343;BME280;67618;52.444;21.192;2023-02-28T16:57:55;101876.09;;;1.90;55.91
78343;BME280;67618;52.444;21.192;2023-02-28T17:07:57;101872.44;;;1.55;56.97
78343;BME280;67618;52.444;21.192;2023-02-28T17:17:58;101875.10;;;1.27;57.79
78343;BME280;67618;52.444;21.192;2023-02-28T17:28:00;101862.79;;;0.98;59.24
78343;BME280;67618;52.444;21.192;2023-02-28T17:38:01;101850.98;;;0.78;60.02
78343;BME280;67618;52.444;21.192;2023-02-28T17:48:03;101843.67;;;0.60;60.56
78343;BME280;67618;52.444;21.192;2023-02-28T17:58:04;101839.51;;;0.33;61.14
78343;BME280;67618;52.444;21.192;2023-02-28T18:08:06;101823.30;;;0.12;61.90
78343;BME280;67618;52.444;21.192;2023-02-28T18:18:07;101821.29;;;-0.04;62.23
78343;BME280;67618;52.444;21.192;2023-02-28T18:28:08;101813.59;;;-0.18;62.51
78343;BME280;67618;52.444;21.192;2023-02-28T18:38:16;101807.70;;;-0.21;62.56
78343;BME280;67618;52.444;21.192;2023-02-28T18:48:18;101820.89;;;-0.30;62.52
78343;BME280;67618;52.444;21.192;2023-02-28T18:58:20;101821.77;;;-0.35;63.11
78343;BME280;67618;52.444;21.192;2023-02-28T19:08:23;101817.77;;;-0.41;63.00
78343;BME280;67618;52.444;21.192;2023-02-28T19:18:24;101829.06;;;-0.42;63.64
78343;BME280;67618;52.444;21.192;2023-02-28T19:28:29;101847.84;;;-0.40;63.75
78343;BME280;67618;52.444;21.192;2023-02-28T19:38:30;101857.71;;;-0.42;63.89
78343;BME280;67618;52.444;21.192;2023-02-28T19:48:32;101859.39;;;-0.53;64.01
78343;BME280;67618;52.444;21.192;2023-02-28T19:58:33;101865.68;;;-0.62;64.44
78343;BME280;67618;52.444;21.192;2023-02-28T20:08:36;101860.42;;;-0.69;64.74
78343;BME280;67618;52.444;21.192;2023-02-28T20:18:39;101843.86;;;-0.73;65.06
78343;BME280;67618;52.444;21.192;2023-02-28T20:28:41;101846.32;;;-0.69;65.52
78343;BME280;67618;52.444;21.192;2023-02-28T20:38:43;101850.23;;;-0.75;65.51
78343;BME280;67618;52.444;21.192;2023-02-28T20:48:44;101839.46;;;-0.85;65.97
78343;BME280;67618;52.444;21.192;2023-02-28T20:58:47;101833.89;;;-0.91;66.24
78343;BME280;67618;52.444;21.192;2023-02-28T21:08:49;101837.84;;;-0.99;66.21
78343;BME280;67618;52.444;21.192;2023-02-28T21:18:51;101834.10;;;-1.12;66.48
78343;BME280;67618;52.444;21.192;2023-02-28T21:29:02;101824.40;;;-1.26;66.81
78343;BME280;67618;52.444;21.192;2023-02-28T21:39:13;101826.95;;;-1.34;67.25
78343;BME280;67618;52.444;21.192;2023-02-28T21:49:15;101826.56;;;-1.22;67.18
78343;BME280;67618;52.444;21.192;2023-02-28T21:59:17;101813.02;;;-1.30;67.34
78343;BME280;67618;52.444;21.192;2023-02-28T22:09:20;101793.60;;;-1.54;68.33
78343;BME280;67618;52.444;21.192;2023-02-28T22:19:22;101799.55;;;-1.60;68.63
78343;BME280;67618;52.444;21.192;2023-02-28T22:29:23;101793.45;;;-1.61;68.94
78343;BME280;67618;52.444;21.192;2023-02-28T22:39:24;101792.09;;;-1.76;69.14
78343;BME280;67618;52.444;21.192;2023-02-28T22:49:26;101809.50;;;-1.74;69.07
78343;BME280;67618;52.444;21.192;2023-02-28T22:59:28;101806.86;;;-1.81;69.13
78343;BME280;67618;52.444;21.192;2023-02-28T23:09:29;101792.85;;;-1.95;69.75
78343;BME280;67618;52.444;21.192;2023-02-28T23:19:30;101799.41;;;-1.84;69.96
78343;BME280;67618;52.444;21.192;2023-02-28T23:29:33;101795.48;;;-1.84;69.86
78343;BME280;67618;52.444;21.192;2023-02-28T23:39:34;101813.10;;;-1.89;70.15
78343;BME280;67618;52.444;21.192;2023-02-28T23:49:35;101811.45;;;-1.91;70.43
78343;BME280;67618;52.444;21.192;2023-02-28T23:59:37;101804.02;;;-2.02;70.93
